createdAt,value
2019-01-27T00:01:38.199Z,5.70
2019-01-27T00:04:06.680Z,5.70
2019-01-27T00:06:34.994Z,5.60
2019-01-27T00:09:05.416Z,5.60
2019-01-27T00:11:33.759Z,5.60
2019-01-27T00:14:02.139Z,5.60
2019-01-27T00:16:30.431Z,5.70
2019-01-27T00:18:58.740Z,5.60
2019-01-27T00:21:27.005Z,5.60
2019-01-27T00:23:55.364Z,5.60
2019-01-27T00:26:23.693Z,5.60
2019-01-27T00:28:52.033Z,5.60
2019-01-27T00:31:20.403Z,5.60
2019-01-27T00:33:48.718Z,5.60
2019-01-27T00:36:17.029Z,5.60
2019-01-27T00:38:45.307Z,5.60
2019-01-27T00:41:13.705Z,5.60
2019-01-27T00:43:42.069Z,5.60
2019-01-27T00:46:10.361Z,5.70
2019-01-27T00:48:38.683Z,5.70
2019-01-27T00:51:07.067Z,5.70
2019-01-27T00:53:35.755Z,5.70
2019-01-27T00:56:04.040Z,5.70
2019-01-27T00:58:32.358Z,5.70
2019-01-27T01:01:00.739Z,5.70
2019-01-27T01:03:29.024Z,5.70
2019-01-27T01:05:57.340Z,5.70
2019-01-27T01:08:25.730Z,5.70
2019-01-27T01:10:53.982Z,5.70
2019-01-27T01:13:22.407Z,5.70
2019-01-27T01:15:50.767Z,5.70
2019-01-27T01:18:19.123Z,5.70
2019-01-27T01:20:47.407Z,5.70
2019-01-27T01:23:15.696Z,5.70
2019-01-27T01:25:44.014Z,5.60
2019-01-27T01:28:12.330Z,5.60
2019-01-27T01:30:40.649Z,5.60
2019-01-27T01:33:08.988Z,5.60
2019-01-27T01:35:37.307Z,5.60
2019-01-27T01:38:05.621Z,5.60
2019-01-27T01:40:33.923Z,5.60
2019-01-27T01:43:02.234Z,5.50
2019-01-27T01:45:31.809Z,5.50
2019-01-27T01:48:00.143Z,5.50
2019-01-27T01:50:28.625Z,5.50
2019-01-27T01:52:56.975Z,5.50
2019-01-27T01:55:25.257Z,5.50
2019-01-27T01:57:53.556Z,5.50
2019-01-27T02:00:22.528Z,5.60
2019-01-27T02:02:50.878Z,5.50
2019-01-27T02:05:19.534Z,5.60
2019-01-27T02:07:47.898Z,5.50
2019-01-27T02:10:17.588Z,5.50
2019-01-27T02:12:46.117Z,5.50
2019-01-27T02:15:33.465Z,5.60
2019-01-27T02:18:01.736Z,5.60
2019-01-27T02:20:30.008Z,5.50
2019-01-27T02:22:58.270Z,5.60
2019-01-27T02:25:26.553Z,5.60
2019-01-27T02:27:54.844Z,5.60
2019-01-27T02:30:23.385Z,5.60
2019-01-27T02:32:51.777Z,5.60
2019-01-27T02:35:20.197Z,5.60
2019-01-27T02:37:48.744Z,5.60
2019-01-27T02:40:17.243Z,5.60
2019-01-27T02:42:45.657Z,5.60
2019-01-27T02:45:14.057Z,5.60
2019-01-27T02:47:42.342Z,5.60
2019-01-27T02:50:10.837Z,5.60
2019-01-27T02:52:39.169Z,5.60
2019-01-27T02:55:07.489Z,5.70
2019-01-27T02:57:35.757Z,5.70
2019-01-27T03:00:06.594Z,5.70
2019-01-27T03:02:34.916Z,5.70
2019-01-27T03:05:06.692Z,5.70
2019-01-27T03:07:38.287Z,5.70
2019-01-27T03:10:09.212Z,5.70
2019-01-27T03:12:37.488Z,5.70
2019-01-27T03:15:06.389Z,5.70
2019-01-27T03:17:34.667Z,5.70
2019-01-27T03:20:02.986Z,5.70
2019-01-27T03:22:31.288Z,5.70
2019-01-27T03:24:59.754Z,5.70
2019-01-27T03:27:28.074Z,5.70
2019-01-27T03:29:56.358Z,5.70
2019-01-27T03:32:24.723Z,5.70
2019-01-27T03:34:53.160Z,5.70
2019-01-27T03:37:21.731Z,5.70
2019-01-27T03:39:50.076Z,5.70
2019-01-27T03:42:18.372Z,5.70
2019-01-27T03:44:46.694Z,5.70
2019-01-27T03:47:14.994Z,5.70
2019-01-27T03:49:43.311Z,5.70
2019-01-27T03:52:11.634Z,5.70
2019-01-27T03:54:39.882Z,5.70
2019-01-27T03:57:08.162Z,5.70
2019-01-27T03:59:36.437Z,5.70
2019-01-27T04:02:04.732Z,5.70
2019-01-27T04:04:33.004Z,5.70
2019-01-27T04:07:01.302Z,5.70
2019-01-27T04:09:29.565Z,5.70
2019-01-27T04:11:58.022Z,5.70
2019-01-27T04:14:26.484Z,5.70
2019-01-27T04:16:54.760Z,5.70
2019-01-27T04:19:23.102Z,5.70
2019-01-27T04:21:51.390Z,5.70
2019-01-27T04:24:19.646Z,5.70
2019-01-27T04:26:48.013Z,5.70
2019-01-27T04:29:16.318Z,5.70
2019-01-27T04:31:44.587Z,5.70
2019-01-27T04:34:12.877Z,5.70
2019-01-27T04:36:41.161Z,5.70
2019-01-27T04:39:10.227Z,5.70
2019-01-27T04:41:38.583Z,5.70
2019-01-27T04:44:06.879Z,5.70
2019-01-27T04:46:35.165Z,5.70
2019-01-27T04:49:03.460Z,5.70
2019-01-27T04:51:31.850Z,5.70
2019-01-27T04:54:00.132Z,5.80
2019-01-27T04:56:28.463Z,5.70
2019-01-27T04:58:56.811Z,5.80
2019-01-27T05:01:25.137Z,5.80
2019-01-27T05:04:11.080Z,5.80
2019-01-27T05:06:39.393Z,5.80
2019-01-27T05:09:09.406Z,5.70
2019-01-27T05:11:37.683Z,5.80
2019-01-27T05:14:06.022Z,5.80
2019-01-27T05:16:34.380Z,5.80
2019-01-27T05:19:02.625Z,5.80
2019-01-27T05:21:30.971Z,5.80
2019-01-27T05:23:59.301Z,5.80
2019-01-27T05:26:27.664Z,5.80
2019-01-27T05:28:55.907Z,5.80
2019-01-27T05:31:24.206Z,5.80
2019-01-27T05:33:52.599Z,5.80
2019-01-27T05:36:20.958Z,5.80
2019-01-27T05:38:49.246Z,5.80
2019-01-27T05:41:17.546Z,5.80
2019-01-27T05:43:45.834Z,5.80
2019-01-27T05:46:14.177Z,5.80
2019-01-27T05:48:42.457Z,5.80
2019-01-27T05:51:10.746Z,5.80
2019-01-27T05:53:39.151Z,5.80
2019-01-27T05:56:07.495Z,5.80
2019-01-27T05:58:35.806Z,5.80
2019-01-27T06:01:04.243Z,5.80
2019-01-27T06:03:32.538Z,5.90
2019-01-27T06:06:00.814Z,5.90
2019-01-27T06:08:29.143Z,5.90
2019-01-27T06:10:57.500Z,5.90
2019-01-27T06:13:25.805Z,5.80
2019-01-27T06:15:54.135Z,5.80
2019-01-27T06:18:22.543Z,5.80
2019-01-27T06:20:50.836Z,5.80
2019-01-27T06:23:19.148Z,5.80
2019-01-27T06:25:47.462Z,5.80
2019-01-27T06:28:15.761Z,5.80
2019-01-27T06:30:44.110Z,5.80
2019-01-27T06:33:40.315Z,5.80
2019-01-27T06:36:08.571Z,5.80
2019-01-27T06:38:36.860Z,5.70
2019-01-27T06:41:05.149Z,5.70
2019-01-27T06:43:33.524Z,5.70
2019-01-27T06:46:01.830Z,5.70
2019-01-27T06:48:30.139Z,5.80
2019-01-27T06:50:58.458Z,5.70
2019-01-27T06:53:26.805Z,5.80
2019-01-27T06:55:55.057Z,5.80
2019-01-27T06:58:25.931Z,5.80
2019-01-27T07:01:22.544Z,5.70
2019-01-27T07:04:00.616Z,5.80
2019-01-27T07:06:39.960Z,5.70
2019-01-27T07:09:28.034Z,5.70
2019-01-27T07:12:18.598Z,5.70
2019-01-27T07:15:09.091Z,5.70
2019-01-27T07:17:55.067Z,5.70
2019-01-27T07:20:38.065Z,5.70
2019-01-27T07:23:19.467Z,5.70
2019-01-27T07:26:05.648Z,5.70
2019-01-27T07:28:49.833Z,5.70
2019-01-27T07:31:40.019Z,5.70
2019-01-27T07:34:25.910Z,5.80
2019-01-27T07:37:12.391Z,5.80
2019-01-27T07:40:02.725Z,5.70
2019-01-27T07:42:45.052Z,5.70
2019-01-27T07:45:41.991Z,5.80
2019-01-27T07:48:35.306Z,5.70
2019-01-27T07:51:10.820Z,5.80
2019-01-27T07:53:57.189Z,5.80
2019-01-27T07:56:44.608Z,5.80
2019-01-27T07:59:22.127Z,5.70
2019-01-27T08:02:15.593Z,5.80
2019-01-27T08:04:52.930Z,5.80
2019-01-27T08:07:39.217Z,5.80
2019-01-27T08:10:36.927Z,5.80
2019-01-27T08:13:24.336Z,5.80
2019-01-27T08:16:03.554Z,5.80
2019-01-27T08:18:47.752Z,5.80
2019-01-27T08:21:37.980Z,5.80
2019-01-27T08:24:31.258Z,5.90
2019-01-27T08:27:17.565Z,5.90
2019-01-27T08:30:08.145Z,5.90
2019-01-27T08:32:53.158Z,5.90
2019-01-27T08:35:38.105Z,5.90
2019-01-27T08:38:24.192Z,6.00
2019-01-27T08:41:11.616Z,6.00
2019-01-27T08:43:58.952Z,6.00
2019-01-27T08:46:33.846Z,6.00
2019-01-27T08:49:02.267Z,6.00
2019-01-27T08:51:30.631Z,6.10
2019-01-27T08:53:58.955Z,6.10
2019-01-27T08:56:27.289Z,6.10
2019-01-27T08:58:55.642Z,6.10
2019-01-27T09:01:42.980Z,6.10
2019-01-27T09:04:19.271Z,6.10
2019-01-27T09:07:15.951Z,6.10
2019-01-27T09:10:01.977Z,6.10
2019-01-27T09:12:52.312Z,6.10
2019-01-27T09:15:38.827Z,6.20
2019-01-27T09:18:26.243Z,6.20
2019-01-27T09:21:19.685Z,6.20
2019-01-27T09:23:55.627Z,6.20
2019-01-27T09:26:32.571Z,6.20
2019-01-27T09:29:13.683Z,6.20
2019-01-27T09:31:59.657Z,6.10
2019-01-27T09:34:56.060Z,6.10
2019-01-27T09:37:46.210Z,6.10
2019-01-27T09:40:34.119Z,6.10
2019-01-27T09:43:28.902Z,6.20
2019-01-27T09:46:28.498Z,6.10
2019-01-27T09:49:15.834Z,6.10
2019-01-27T09:51:56.716Z,6.10
2019-01-27T09:54:33.148Z,6.10
2019-01-27T09:57:26.560Z,6.10
2019-01-27T10:00:05.856Z,6.10
2019-01-27T10:03:11.570Z,6.10
2019-01-27T10:06:01.809Z,6.10
2019-01-27T10:09:00.024Z,6.10
2019-01-27T10:11:59.706Z,6.10
2019-01-27T10:14:53.104Z,6.10
2019-01-27T10:17:35.246Z,6.10
2019-01-27T10:20:15.497Z,6.10
2019-01-27T10:23:05.685Z,6.10
2019-01-27T10:25:52.977Z,6.10
2019-01-27T10:28:29.384Z,6.10
2019-01-27T10:31:12.924Z,6.10
2019-01-27T10:34:06.128Z,6.10
2019-01-27T10:36:41.599Z,6.20
2019-01-27T10:39:40.978Z,6.20
2019-01-27T10:42:28.265Z,6.20
2019-01-27T10:45:11.985Z,6.20
2019-01-27T10:47:54.839Z,6.20
2019-01-27T10:50:42.194Z,6.20
2019-01-27T10:53:25.541Z,6.20
2019-01-27T10:56:03.556Z,6.20
2019-01-27T10:58:51.246Z,6.20
2019-01-27T11:01:50.905Z,6.20
2019-01-27T11:04:41.270Z,6.20
2019-01-27T11:07:23.819Z,6.20
2019-01-27T11:10:02.236Z,6.20
2019-01-27T11:12:48.348Z,6.20
2019-01-27T11:15:35.777Z,6.20
2019-01-27T11:18:17.494Z,6.20
2019-01-27T11:21:10.707Z,6.20
2019-01-27T11:24:07.300Z,6.20
2019-01-27T11:26:53.489Z,6.20
2019-01-27T11:29:46.892Z,6.20
2019-01-27T11:32:34.228Z,6.20
2019-01-27T11:35:14.754Z,6.20
2019-01-27T11:38:11.047Z,6.20
2019-01-27T11:41:01.610Z,6.20
2019-01-27T11:43:51.711Z,6.20
2019-01-27T11:46:38.506Z,6.20
2019-01-27T11:49:14.924Z,6.20
2019-01-27T11:51:47.361Z,6.20
2019-01-27T11:54:15.687Z,6.20
2019-01-27T11:56:43.971Z,6.20
2019-01-27T11:59:12.299Z,6.20
2019-01-27T12:01:40.591Z,6.20
2019-01-27T12:04:08.943Z,6.20
2019-01-27T12:06:37.329Z,6.20
2019-01-27T12:09:07.019Z,6.20
2019-01-27T12:11:35.301Z,6.20
2019-01-27T12:14:03.693Z,6.20
2019-01-27T12:16:46.535Z,6.20
2019-01-27T12:19:23.741Z,6.20
2019-01-27T12:21:55.104Z,6.20
2019-01-27T12:24:23.493Z,6.20
2019-01-27T12:26:51.884Z,6.20
2019-01-27T12:29:20.228Z,6.20
2019-01-27T12:31:48.740Z,6.20
2019-01-27T12:34:17.163Z,6.30
2019-01-27T12:36:45.461Z,6.20
2019-01-27T12:39:13.919Z,6.20
2019-01-27T12:41:42.308Z,6.20
2019-01-27T12:44:10.703Z,6.30
2019-01-27T12:46:39.041Z,6.30
2019-01-27T12:49:07.509Z,6.30
2019-01-27T12:51:36.015Z,6.30
2019-01-27T12:54:04.569Z,6.30
2019-01-27T12:56:32.966Z,6.30
2019-01-27T12:59:01.403Z,6.30
2019-01-27T13:01:29.873Z,6.30
2019-01-27T13:03:58.215Z,6.30
2019-01-27T13:06:26.621Z,6.30
2019-01-27T13:08:54.962Z,6.40
2019-01-27T13:11:23.308Z,6.30
2019-01-27T13:13:51.742Z,6.40
2019-01-27T13:16:21.426Z,6.30
2019-01-27T13:18:49.950Z,6.30
2019-01-27T13:21:21.514Z,6.40
2019-01-27T13:23:50.360Z,6.40
2019-01-27T13:26:19.096Z,6.30
2019-01-27T13:28:47.750Z,6.30
2019-01-27T13:31:16.263Z,6.30
2019-01-27T13:33:44.787Z,6.30
2019-01-27T13:36:13.676Z,6.30
2019-01-27T13:38:42.184Z,6.30
2019-01-27T13:41:10.710Z,6.30
2019-01-27T13:43:39.227Z,6.30
2019-01-27T13:46:07.577Z,6.30
2019-01-27T13:48:36.220Z,6.30
2019-01-27T13:51:04.823Z,6.30
2019-01-27T13:53:33.563Z,6.30
2019-01-27T13:56:02.260Z,6.30
2019-01-27T13:58:30.990Z,6.30
2019-01-27T14:00:59.396Z,6.30
2019-01-27T14:03:27.905Z,6.30
2019-01-27T14:05:56.250Z,6.30
2019-01-27T14:08:24.745Z,6.30
2019-01-27T14:10:53.469Z,6.30
2019-01-27T14:13:21.876Z,6.30
2019-01-27T14:15:50.201Z,6.30
2019-01-27T14:18:18.527Z,6.30
2019-01-27T14:20:47.028Z,6.30
2019-01-27T14:23:15.528Z,6.30
2019-01-27T14:25:46.996Z,6.30
2019-01-27T14:28:15.646Z,6.30
2019-01-27T14:30:44.293Z,6.30
2019-01-27T14:33:12.759Z,6.30
2019-01-27T14:35:41.665Z,6.30
2019-01-27T14:38:10.107Z,6.20
2019-01-27T14:40:39.119Z,6.20
2019-01-27T14:43:07.684Z,6.20
2019-01-27T14:45:36.270Z,6.20
2019-01-27T14:48:08.166Z,6.20
2019-01-27T14:50:41.667Z,6.20
2019-01-27T14:53:10.450Z,6.20
2019-01-27T14:55:39.150Z,6.20
2019-01-27T14:58:07.871Z,6.10
2019-01-27T15:00:37.778Z,6.20
2019-01-27T15:03:06.673Z,6.10
2019-01-27T15:05:35.125Z,6.10
2019-01-27T15:08:03.503Z,6.10
2019-01-27T15:10:35.139Z,6.10
2019-01-27T15:13:03.622Z,6.10
2019-01-27T15:15:32.649Z,6.10
2019-01-27T15:18:01.070Z,6.10
2019-01-27T15:20:30.964Z,6.00
2019-01-27T15:23:09.201Z,6.00
2019-01-27T15:25:38.005Z,6.10
2019-01-27T15:28:06.682Z,6.00
2019-01-27T15:30:38.080Z,6.00
2019-01-27T15:33:06.969Z,6.00
2019-01-27T15:35:35.701Z,6.00
2019-01-27T15:38:04.464Z,6.00
2019-01-27T15:40:32.955Z,5.90
2019-01-27T15:43:01.470Z,5.90
2019-01-27T15:45:30.750Z,5.90
2019-01-27T15:47:59.429Z,5.80
2019-01-27T15:50:31.134Z,5.80
2019-01-27T15:53:00.006Z,5.80
2019-01-27T15:55:28.711Z,5.70
2019-01-27T15:57:58.241Z,5.70
2019-01-27T16:00:29.316Z,5.60
2019-01-27T16:02:58.975Z,5.60
2019-01-27T16:05:30.207Z,5.50
2019-01-27T16:07:59.878Z,5.50
2019-01-27T16:10:29.610Z,5.50
2019-01-27T16:12:58.875Z,5.40
2019-01-27T16:15:32.844Z,5.40
2019-01-27T16:18:05.461Z,5.40
2019-01-27T16:20:35.881Z,5.30
2019-01-27T16:23:24.601Z,5.30
2019-01-27T16:25:54.866Z,5.30
2019-01-27T16:28:24.857Z,5.20
2019-01-27T16:31:11.925Z,5.20
2019-01-27T16:33:48.926Z,5.20
2019-01-27T16:36:20.325Z,5.20
2019-01-27T16:38:51.817Z,5.10
2019-01-27T16:41:22.024Z,5.10
2019-01-27T16:43:52.915Z,5.10
2019-01-27T16:46:23.372Z,5.10
2019-01-27T16:48:53.419Z,5.00
2019-01-27T16:51:24.827Z,5.00
2019-01-27T16:53:57.935Z,5.00
2019-01-27T16:56:31.758Z,5.00
2019-01-27T16:59:09.804Z,5.00
2019-01-27T17:01:43.343Z,5.00
2019-01-27T17:04:16.304Z,4.90
2019-01-27T17:06:50.144Z,4.90
2019-01-27T17:09:20.555Z,4.90
2019-01-27T17:11:58.210Z,4.80
2019-01-27T17:14:28.975Z,4.80
2019-01-27T17:16:58.913Z,4.80
2019-01-27T17:19:27.856Z,4.70
2019-01-27T17:21:57.204Z,4.70
2019-01-27T17:24:28.202Z,4.70
2019-01-27T17:26:57.351Z,4.70
2019-01-27T17:29:27.299Z,4.70
2019-01-27T17:31:57.237Z,4.70
2019-01-27T17:34:27.264Z,4.60
2019-01-27T17:36:56.500Z,4.60
2019-01-27T17:39:25.155Z,4.60
2019-01-27T17:41:54.358Z,4.60
2019-01-27T17:44:43.399Z,4.60
2019-01-27T17:47:12.220Z,4.60
2019-01-27T17:49:40.861Z,4.60
2019-01-27T17:52:09.192Z,4.60
2019-01-27T17:54:37.999Z,4.60
2019-01-27T17:57:17.030Z,4.60
2019-01-27T18:00:01.027Z,4.60
2019-01-27T18:02:51.922Z,4.60
2019-01-27T18:05:25.131Z,4.60
2019-01-27T18:08:07.122Z,4.50
2019-01-27T18:10:54.440Z,4.50
2019-01-27T18:13:48.063Z,4.50
2019-01-27T18:16:16.446Z,4.50
2019-01-27T18:18:45.725Z,4.50
2019-01-27T18:21:14.899Z,4.50
2019-01-27T18:23:46.030Z,4.50
2019-01-27T18:26:14.817Z,4.50
2019-01-27T18:28:43.651Z,4.50
2019-01-27T18:31:12.368Z,4.50
2019-01-27T18:33:41.117Z,4.50
2019-01-27T18:36:11.288Z,4.50
2019-01-27T18:38:42.164Z,4.50
2019-01-27T18:41:10.946Z,4.50
2019-01-27T18:43:39.439Z,4.50
2019-01-27T18:46:07.858Z,4.50
2019-01-27T18:48:36.652Z,4.50
2019-01-27T18:51:04.931Z,4.50
2019-01-27T18:54:07.576Z,4.50
2019-01-27T18:57:06.890Z,4.40
2019-01-27T18:59:54.214Z,4.40
2019-01-27T19:02:43.539Z,4.40
2019-01-27T19:05:21.562Z,4.40
2019-01-27T19:08:14.968Z,4.40
2019-01-27T19:11:17.486Z,4.40
2019-01-27T19:14:04.839Z,4.40
2019-01-27T19:17:10.644Z,4.40
2019-01-27T19:20:16.166Z,4.30
2019-01-27T19:23:02.117Z,4.30
2019-01-27T19:25:40.080Z,4.30
2019-01-27T19:28:16.721Z,4.30
2019-01-27T19:31:04.020Z,4.30
2019-01-27T19:33:38.658Z,4.20
2019-01-27T19:36:19.650Z,4.20
2019-01-27T19:38:59.694Z,4.20
2019-01-27T19:42:05.150Z,4.20
2019-01-27T19:44:45.134Z,4.20
2019-01-27T19:47:35.215Z,4.10
2019-01-27T19:50:21.212Z,4.10
2019-01-27T19:53:13.114Z,4.10
2019-01-27T19:55:59.566Z,4.00
2019-01-27T19:58:46.939Z,4.10
2019-01-27T20:01:27.968Z,4.00
2019-01-27T20:04:21.386Z,4.00
2019-01-27T20:07:08.772Z,4.00
2019-01-27T20:09:54.765Z,4.00
2019-01-27T20:12:41.075Z,3.90
2019-01-27T20:15:42.641Z,3.90
2019-01-27T20:18:30.030Z,3.90
2019-01-27T20:21:23.335Z,3.80
2019-01-27T20:24:16.741Z,3.80
2019-01-27T20:27:07.148Z,3.70
2019-01-27T20:29:53.027Z,3.70
2019-01-27T20:32:38.920Z,3.70
2019-01-27T20:35:18.103Z,3.60
2019-01-27T20:37:59.830Z,3.60
2019-01-27T20:40:46.190Z,3.60
2019-01-27T20:43:32.550Z,3.60
2019-01-27T20:46:22.921Z,3.50
2019-01-27T20:49:05.730Z,3.50
2019-01-27T20:51:55.835Z,3.50
2019-01-27T20:54:40.568Z,3.40
2019-01-27T20:57:34.273Z,3.40
2019-01-27T21:00:30.097Z,3.40
2019-01-27T21:03:17.590Z,3.40
2019-01-27T21:05:53.397Z,3.40
2019-01-27T21:08:26.854Z,3.40
2019-01-27T21:11:11.260Z,3.40
2019-01-27T21:13:57.206Z,3.30
2019-01-27T21:16:44.614Z,3.30
2019-01-27T21:19:20.460Z,3.30
2019-01-27T21:21:48.733Z,3.30
2019-01-27T21:24:17.031Z,3.30
2019-01-27T21:26:45.313Z,3.20
2019-01-27T21:29:13.617Z,3.20
2019-01-27T21:31:41.887Z,3.20
2019-01-27T21:34:10.170Z,3.20
2019-01-27T21:36:38.452Z,3.10
2019-01-27T21:39:07.971Z,3.20
2019-01-27T21:41:36.286Z,3.10
2019-01-27T21:44:04.690Z,3.20
2019-01-27T21:46:32.965Z,3.10
2019-01-27T21:49:01.283Z,3.10
2019-01-27T21:51:29.749Z,3.10
2019-01-27T21:53:58.052Z,3.10
2019-01-27T21:56:26.333Z,3.10
2019-01-27T21:58:54.672Z,3.20
2019-01-27T22:01:25.465Z,3.10
2019-01-27T22:03:52.970Z,3.20
2019-01-27T22:06:21.222Z,3.20
2019-01-27T22:08:49.504Z,3.20
2019-01-27T22:11:22.545Z,3.20
2019-01-27T22:13:50.846Z,3.20
2019-01-27T22:16:19.189Z,3.20
2019-01-27T22:18:47.481Z,3.20
2019-01-27T22:21:15.763Z,3.20
2019-01-27T22:23:44.025Z,3.20
2019-01-27T22:26:12.328Z,3.20
2019-01-27T22:28:40.633Z,3.20
2019-01-27T22:31:08.909Z,3.30
2019-01-27T22:33:37.201Z,3.30
2019-01-27T22:36:05.472Z,3.30
2019-01-27T22:38:33.727Z,3.30
2019-01-27T22:41:02.020Z,3.30
2019-01-27T22:43:30.289Z,3.30
2019-01-27T22:45:58.583Z,3.40
2019-01-27T22:48:26.856Z,3.40
2019-01-27T22:51:07.854Z,3.40
2019-01-27T22:53:36.083Z,3.40
2019-01-27T22:56:04.356Z,3.40
2019-01-27T22:58:32.650Z,3.40
2019-01-27T23:01:04.690Z,3.40
2019-01-27T23:03:34.500Z,3.40
2019-01-27T23:06:02.767Z,3.40
2019-01-27T23:08:31.036Z,3.40
2019-01-27T23:10:59.300Z,3.40
2019-01-27T23:13:27.584Z,3.40
2019-01-27T23:15:55.876Z,3.40
2019-01-27T23:18:24.176Z,3.50
2019-01-27T23:20:52.439Z,3.50
2019-01-27T23:23:20.730Z,3.50
2019-01-27T23:25:50.375Z,3.50
2019-01-27T23:28:18.948Z,3.50
2019-01-27T23:30:47.207Z,3.50
2019-01-27T23:33:15.487Z,3.50
2019-01-27T23:35:43.741Z,3.60
2019-01-27T23:38:12.006Z,3.50
2019-01-27T23:40:40.278Z,3.60
2019-01-27T23:43:08.567Z,3.60
2019-01-27T23:45:36.800Z,3.60
2019-01-27T23:48:05.073Z,3.60
2019-01-27T23:50:33.332Z,3.60
2019-01-27T23:53:01.606Z,3.60
2019-01-27T23:55:29.832Z,3.60
2019-01-27T23:57:58.133Z,3.60
